Terminal Aerodrome Forecast
Issued by NWS

Home | Current Version | Previous Version | Text Only | Print | Product List | Glossary On
Versions: 1 2 3 4 5 6 7 8 9 10 11 12 13 14 15 16 17 18 19 20 21 22 23 24 25
335
FTUS41 KOKX 090548
TAFGON
TAF
KGON 090548Z 0906/1006 01010KT 6SM BR SCT015 OVC040
     FM090900 02007KT P6SM BKN015 OVC035
     FM091300 03009KT P6SM OVC015
     FM092200 04006KT P6SM OVC015
     FM100100 03004KT 2SM -SN BR BKN007 OVC010=

USA.gov is the U.S. government's official web portal to all federal, state and local government web resources and services.